• Join FlightAware (Why Join?)
  • Login
  • US Flag 
02:00AM EDT


 

Airport Tracker/Info


-or-


 

Live Flight TrackerFlight Track Log ✈ EGF2829 ✈ 31-Oct-2013 ✈ KORD - KALO

Flight Track Log - Related Links

Times and Time Zones

All times are in EDT time to prevent confusion due to time zone crossing. See the EGF2829 flight status page for this flight to view local times or setup timezone preferences in your user account.

Time Position Orientation Groundspeed Altitude Reporting Facility
EDT Latitude Longitude Course Direction KTS MPH feet Rate Location/Type
04:30PM 42.0264 -88.0319 270° West 209 241 4,200  Level Chicago Center
04:31PM 42.0353 -88.2713 282° West  Level Estimated
04:31PM 42.0567 -88.1317 292° West 230 265 5,000  Level Chicago Center
04:32PM 42.0621 -88.3900 287° West  Level FlightAware Approximate
04:32PM 42.0700 -88.2319 280° West 258 297 6,900  Level Chicago Center
04:33PM 42.0793 -88.5118 289° West  Level Estimated
04:33PM 42.0864 -88.3317 283° West 270 311 9,200  Level Chicago Center
04:34PM 42.0964 -88.6337 270° West  Level Estimated
04:34PM 42.1036 -88.4372 282° West 286 329 11,300  Level Chicago Center
04:35PM 42.1134 -88.7557 270° West  Level Estimated
04:35PM 42.1219 -88.5461 283° West 297 342 12,800  Level Chicago Center
04:36PM 42.1456 -88.6958 282° West 338 389 14,500 1,500 Climbing Chicago Center
04:37PM 42.1650 -88.8222 282° West 346 398 16,000 1,500 Climbing Chicago Center
04:38PM 42.1600 -88.9558 267° West 340 391 17,600 1,740 Climbing Chicago Center
04:39PM 42.1567 -89.0861 268° West 346 398 19,600 1,680 Climbing Chicago Center
04:40PM 42.1533 -89.2172 268° West 349 402 21,100 1,440 Climbing Chicago Center
04:41PM 42.1500 -89.3506 268° West 354 407 22,600 1,320 Climbing Chicago Center
04:42PM 42.1456 -89.4861 268° West 359 413 23,900 660 Climbing Chicago Center
04:43PM 42.1422 -89.6575 269° West 385 443 24,000  Climbing Chicago Center
04:44PM 42.1383 -89.8022 268° West 387 445 24,000  Level Chicago Center
04:45PM 42.1458 -89.9336 274° West 401 461 24,000  Level Chicago Center
04:46PM 42.1794 -90.1103 284° West 410 472 24,000  Level Chicago Center
04:47PM 42.2036 -90.2500 283° West 392 451 24,000 -420 Level Chicago Center
04:48PM 42.2242 -90.3742 283° West 347 399 23,200 -1,080 Descending Chicago Center
04:49PM 42.2450 -90.4936 283° West 334 384 21,800 -1,380 Descending Chicago Center
04:50PM 42.2661 -90.6139 283° West 332 382 20,400 -1,500 Descending Chicago Center
04:51PM 42.2933 -90.7681 283° West 350 403 18,700 -1,800 Descending Chicago Center
04:52PM 42.3158 -90.8997 283° West 359 413 16,700 -1,680 Descending Chicago Center
04:53PM 42.3383 -91.0325 283° West 363 418 15,200 -1,440 Descending Chicago Center
04:55PM 42.3603 -91.1633 283° West 361 415 13,700 -1,500 Descending Chicago Center
04:56PM 42.3806 -91.2889 282° West 349 402 12,200 -1,320 Descending Chicago Center
04:57PM 42.4044 -91.4383 282° West 342 394 11,000 -600 Descending Chicago Center
04:58PM 42.4236 -91.5597 282° West 333 383 11,000  Level Chicago Center
04:59PM 42.4447 -91.6842 283° West 337 388 11,000 -180 Level Chicago Center
05:00PM 42.4550 -91.8097 276° West 337 388 10,700 -540 Descending Chicago Center
05:01PM 42.4539 -91.9200 269° West 316 364 10,000 -1,320 Descending Chicago Center
05:02PM 42.4511 -92.0061 268° West 264 304 8,000 -2,160 Descending Chicago Center
05:03PM 42.4506 -92.1047 270° West 231 266 5,600 -2,160 Descending Chicago Center
05:04PM 42.4556 -92.1883 275° West 225 259 3,600 -1,320 Descending Chicago Center
05:05PM 42.4794 -92.2561 296° West 211 243 2,900 -660 Descending Chicago Center
05:06PM 42.5069 -92.3094 305° West 188 216 2,300 -720 Descending Chicago Center
05:07PM 42.5314 -92.3522 308° West 166 191 1,500 -540 Descending Chicago Center
05:08PM 42.5581 -92.3989 308° West 156 180 1,200 -300 Descending Chicago Center
05:10PM 42.5500 -92.4000 289° West  Level FlightAware Approximate
05:17PM 42.5571 -92.4003 289° West  Level Estimated